Time;durP1;ratioP1;P1;durP2;ratioP2;P2;SDS_P1;SDS_P2;PMS_P1;PMS_P2;Temp;Humidity;BMP_temperature;BMP_pressure;BME280_temperature;BME280_humidity;BME280_pressure;Samples;Min_cycle;Max_cycle;Signal;HPM_P1;HPM_P2
2021/04/14 00:00:07;;;;;;;30.25;10.03;;;;;;;9.76;100.00;101440.94;1580984;90;21109;-92
2021/04/14 00:02:35;;;;;;;27.30;9.63;;;;;;;9.63;100.00;101439.30;1581101;90;21220;-92
2021/04/14 00:05:01;;;;;;;23.00;9.18;;;;;;;9.66;100.00;101438.83;1581009;90;21204;-90
2021/04/14 00:07:27;;;;;;;31.02;10.68;;;;;;;9.60;100.00;101442.98;1580904;90;21180;-90
2021/04/14 00:09:53;;;;;;;33.23;9.45;;;;;;;9.57;100.00;101438.88;1580975;90;21349;-90
2021/04/14 00:12:19;;;;;;;21.82;9.20;;;;;;;9.63;100.00;101429.06;1580948;90;21664;-90
2021/04/14 00:14:45;;;;;;;23.38;9.20;;;;;;;9.74;100.00;101429.60;1581097;90;21632;-90
2021/04/14 00:17:11;;;;;;;25.00;9.48;;;;;;;9.67;100.00;101420.27;1580904;90;21382;-91
2021/04/14 00:19:37;;;;;;;29.42;10.10;;;;;;;9.74;100.00;101423.69;1581061;90;21010;-91
2021/04/14 00:22:03;;;;;;;27.45;10.05;;;;;;;9.77;100.00;101426.44;1584773;89;21216;-91
2021/04/14 00:24:31;;;;;;;24.18;9.40;;;;;;;9.48;100.00;101434.89;1600121;88;21267;-91
2021/04/14 00:26:57;;;;;;;27.37;9.85;;;;;;;9.17;100.00;101428.73;1612014;89;21174;-90
2021/04/14 00:29:23;;;;;;;36.38;11.22;;;;;;;9.19;100.00;101432.55;1656064;86;21327;-90
2021/04/14 00:31:49;;;;;;;26.42;9.48;;;;;;;9.08;100.00;101436.83;1655850;86;20971;-90
2021/04/14 00:34:20;;;;;;;27.87;9.70;;;;;;;8.98;100.00;101444.64;1655284;86;21638;-90
2021/04/14 00:36:48;;;;;;;29.18;9.88;;;;;;;8.86;100.00;101443.25;1655512;86;21161;-91
2021/04/14 00:39:23;;;;;;;27.35;10.43;;;;;;;8.60;100.00;101442.53;1655811;86;21196;-90
2021/04/14 00:41:51;;;;;;;41.40;14.00;;;;;;;8.45;100.00;101444.78;1655868;86;21673;-89
2021/04/14 00:44:18;;;;;;;40.78;14.50;;;;;;;8.22;100.00;101448.63;1655836;86;21168;-90
2021/04/14 00:46:44;;;;;;;38.25;15.25;;;;;;;8.39;100.00;101442.47;1655734;86;21225;-90
2021/04/14 00:49:12;;;;;;;50.25;16.62;;;;;;;8.31;100.00;101443.27;1655650;86;20966;-91
2021/04/14 00:51:38;;;;;;;53.48;20.00;;;;;;;8.28;100.00;101428.94;1655857;86;21188;-90
2021/04/14 00:54:04;;;;;;;59.38;19.73;;;;;;;8.24;100.00;101431.79;1655812;86;21157;-90
2021/04/14 00:56:30;;;;;;;57.33;20.37;;;;;;;8.43;100.00;101454.11;1655703;86;21212;-90
2021/04/14 00:58:56;;;;;;;60.80;23.18;;;;;;;8.44;100.00;101455.21;1655895;86;22349;-90
2021/04/14 01:01:23;;;;;;;69.87;22.90;;;;;;;8.35;100.00;101453.84;1655739;86;21212;-91
2021/04/14 01:03:52;;;;;;;67.78;22.62;;;;;;;8.27;100.00;101448.27;1655737;86;21217;-90
2021/04/14 01:06:24;;;;;;;74.62;24.23;;;;;;;8.18;100.00;101442.37;1655595;86;21697;-91
2021/04/14 01:08:50;;;;;;;68.55;23.02;;;;;;;8.09;100.00;101441.52;1655995;86;26773;-90
2021/04/14 01:11:19;;;;;;;67.03;22.67;;;;;;;8.17;100.00;101443.39;1655896;85;21906;-90
2021/04/14 01:13:46;;;;;;;71.50;22.55;;;;;;;8.26;100.00;101431.83;1655340;86;21165;-90
2021/04/14 01:16:12;;;;;;;57.23;19.85;;;;;;;8.31;100.00;101422.59;1655803;86;21205;-91
2021/04/14 01:18:39;;;;;;;64.10;20.85;;;;;;;8.18;100.00;101426.78;1655617;86;21244;-90
2021/04/14 01:21:11;;;;;;;76.22;23.25;;;;;;;7.81;100.00;101425.38;1655866;86;21177;-91
2021/04/14 01:23:37;;;;;;;79.75;23.32;;;;;;;7.67;100.00;101417.97;1605285;89;21351;-91
2021/04/14 01:26:04;;;;;;;74.25;23.87;;;;;;;7.62;100.00;101410.31;1605312;88;21190;-91
2021/04/14 01:28:37;;;;;;;70.55;23.85;;;;;;;7.49;100.00;101409.87;1605344;88;21178;-91
2021/04/14 01:31:11;;;;;;;84.30;23.60;;;;;;;7.26;100.00;101399.25;1605354;89;28456;-91
2021/04/14 01:33:37;;;;;;;78.20;24.77;;;;;;;7.42;100.00;101397.06;1605339;88;21517;-91
2021/04/14 01:36:06;;;;;;;75.97;23.15;;;;;;;7.20;100.00;101394.73;1605484;88;21250;-91
2021/04/14 01:38:32;;;;;;;73.45;22.90;;;;;;;7.05;100.00;101396.91;1605363;89;21294;-91
2021/04/14 01:41:00;;;;;;;67.55;22.48;;;;;;;6.87;100.00;101394.95;1605423;89;21179;-91
2021/04/14 01:43:27;;;;;;;55.78;20.00;;;;;;;6.63;100.00;101389.84;1605229;89;21097;-91
2021/04/14 01:45:52;;;;;;;67.75;21.45;;;;;;;6.52;100.00;101387.30;1584376;89;21734;-91
2021/04/14 01:48:19;;;;;;;79.27;22.98;;;;;;;6.47;100.00;101379.61;1605255;89;21261;-91
2021/04/14 01:50:46;;;;;;;88.92;22.85;;;;;;;6.45;100.00;101373.14;1605128;89;21186;-91
2021/04/14 01:53:15;;;;;;;78.30;22.00;;;;;;;6.60;100.00;101368.32;1605209;89;21206;-91
2021/04/14 01:55:43;;;;;;;78.90;21.07;;;;;;;6.63;100.00;101358.23;1605355;89;21514;-90
2021/04/14 01:58:13;;;;;;;71.10;21.02;;;;;;;6.30;100.00;101355.20;1605238;89;21642;-91
2021/04/14 02:00:49;;;;;;;75.35;21.70;;;;;;;6.00;100.00;101360.22;1605391;89;21278;-91
2021/04/14 02:03:15;;;;;;;87.02;22.48;;;;;;;5.82;100.00;101361.67;1605367;87;21234;-91
2021/04/14 02:05:41;;;;;;;81.02;22.77;;;;;;;5.80;100.00;101357.59;1605456;89;21207;-91
2021/04/14 02:08:10;;;;;;;74.72;22.13;;;;;;;5.70;100.00;101360.16;1605466;89;21216;-91
2021/04/14 02:10:37;;;;;;;76.47;21.65;;;;;;;5.62;100.00;101362.25;1605602;89;21180;-91
2021/04/14 02:13:11;;;;;;;64.20;23.27;;;;;;;5.61;100.00;101367.27;1605380;89;21304;-91
2021/04/14 02:15:37;;;;;;;70.95;23.42;;;;;;;5.65;100.00;101377.36;1608061;88;21227;-91
2021/04/14 02:18:04;;;;;;;78.28;23.85;;;;;;;5.96;100.00;101384.42;1605157;89;21053;-91
2021/04/14 02:20:32;;;;;;;78.92;23.62;;;;;;;5.46;100.00;101374.18;1633425;86;21193;-91
2021/04/14 02:22:58;;;;;;;61.42;21.35;;;;;;;5.31;100.00;101378.39;1658173;86;21134;-92
2021/04/14 02:25:25;;;;;;;60.55;20.00;;;;;;;5.15;100.00;101382.30;1658463;86;21666;-91
2021/04/14 02:27:52;;;;;;;58.78;19.80;;;;;;;5.27;100.00;101391.05;1658214;86;21239;-91
2021/04/14 02:30:25;;;;;;;64.20;18.70;;;;;;;4.97;100.00;101398.93;1658620;86;21566;-91
2021/04/14 02:32:53;;;;;;;;;;;;;;;4.92;100.00;101396.55;1660683;86;21177;-92
2021/04/14 02:35:21;;;;;;;58.10;18.42;;;;;;;4.60;100.00;101399.44;1603394;89;20255;-92
2021/04/14 02:37:47;;;;;;;60.60;19.95;;;;;;;4.76;100.00;101399.91;1603077;88;21306;-91
2021/04/14 02:40:14;;;;;;;59.55;22.05;;;;;;;4.58;100.00;101404.97;1603777;89;21008;-91
2021/04/14 02:42:41;;;;;;;62.27;20.40;;;;;;;4.58;100.00;101404.97;1606487;89;21143;-91
2021/04/14 02:45:10;;;;;;;50.88;19.02;;;;;;;4.77;100.00;101410.08;1603302;89;21190;-91
2021/04/14 02:47:36;;;;;;;51.15;20.80;;;;;;;4.25;100.00;101410.17;1602949;89;21176;-92
2021/04/14 02:50:05;;;;;;;52.08;19.23;;;;;;;4.44;100.00;101408.60;1603236;89;21285;-92
2021/04/14 02:52:32;;;;;;;49.58;19.07;;;;;;;4.63;100.00;101406.53;1605491;88;21322;-91
2021/04/14 02:54:57;;;;;;;50.90;20.40;;;;;;;4.50;100.00;101407.80;1605805;89;21091;-91
2021/04/14 02:57:24;;;;;;;50.45;20.40;;;;;;;4.90;100.00;101405.27;1605622;89;20981;-91
2021/04/14 02:59:50;;;;;;;50.10;19.73;;;;;;;4.90;100.00;101402.59;1605692;89;21706;-91
2021/04/14 03:02:16;;;;;;;51.50;20.00;;;;;;;4.76;100.00;101401.73;1605589;89;21290;-92
2021/04/14 03:04:42;;;;;;;48.52;19.35;;;;;;;4.93;100.00;101390.99;1605493;89;21278;-91
2021/04/14 03:07:08;;;;;;;47.27;18.48;;;;;;;5.10;100.00;101391.95;1605637;89;21664;-92
2021/04/14 03:09:34;;;;;;;54.42;20.27;;;;;;;5.11;100.00;101390.41;1605648;89;20981;-91
2021/04/14 03:12:00;;;;;;;48.65;20.10;;;;;;;5.29;100.00;101395.66;1602188;88;21103;-91
2021/04/14 03:14:26;;;;;;;50.43;19.55;;;;;;;5.48;100.00;101394.03;1605659;88;21256;-91
2021/04/14 03:16:52;;;;;;;49.10;19.85;;;;;;;5.54;100.00;101393.20;1584473;89;21242;-91
2021/04/14 03:19:18;;;;;;;53.08;20.75;;;;;;;5.46;100.00;101398.23;1605666;89;21072;-91
2021/04/14 03:21:43;;;;;;;49.30;19.87;;;;;;;5.56;100.00;101389.79;1605566;88;20993;-91
2021/04/14 03:24:10;;;;;;;50.83;19.90;;;;;;;5.66;100.00;101386.20;1605632;89;21612;-91
2021/04/14 03:26:35;;;;;;;50.67;20.45;;;;;;;5.66;100.00;101386.20;1605547;89;21628;-91
2021/04/14 03:29:01;;;;;;;53.68;20.50;;;;;;;5.65;100.00;101388.58;1605579;89;20996;-91
2021/04/14 03:31:27;;;;;;;54.10;20.30;;;;;;;5.73;100.00;101385.66;1616301;86;21596;-91
2021/04/14 03:33:54;;;;;;;53.75;20.65;;;;;;;5.81;100.00;101384.11;1659798;86;20969;-91
2021/04/14 03:36:21;;;;;;;52.30;20.88;;;;;;;5.80;100.00;101384.34;1659736;86;21189;-91
2021/04/14 03:38:47;;;;;;;53.42;20.40;;;;;;;5.81;100.00;101387.31;1637191;86;21234;-91
2021/04/14 03:41:14;;;;;;;57.17;20.57;;;;;;;5.82;100.00;101386.27;1637231;86;21219;-90
2021/04/14 03:43:41;;;;;;;58.90;21.45;;;;;;;5.94;100.00;101383.80;1659930;86;21171;-90
2021/04/14 03:46:07;;;;;;;46.88;20.35;;;;;;;5.95;100.00;101381.45;1659795;86;21180;-90
2021/04/14 03:48:34;;;;;;;49.83;19.37;;;;;;;5.94;100.00;101385.95;1659653;86;21182;-91
2021/04/14 03:51:00;;;;;;;51.40;18.85;;;;;;;6.22;100.00;101383.01;1659968;86;21588;-91
2021/04/14 03:53:30;;;;;;;51.00;19.05;;;;;;;5.97;100.00;101386.91;1659713;86;21220;-90
2021/04/14 03:56:00;;;;;;;50.48;19.27;;;;;;;5.85;100.00;101379.16;1657597;86;21189;-91
2021/04/14 03:58:28;;;;;;;53.15;18.92;;;;;;;6.03;100.00;101389.23;1655532;86;21161;-91
2021/04/14 04:00:56;;;;;;;52.38;19.62;;;;;;;6.13;100.00;101386.44;1655462;86;21133;-91
2021/04/14 04:03:24;;;;;;;49.75;19.40;;;;;;;6.20;100.00;101383.73;1655586;86;21739;-90
2021/04/14 04:05:51;;;;;;;49.70;19.52;;;;;;;6.11;100.00;101378.31;1655468;86;21374;-90
2021/04/14 04:08:18;;;;;;;50.15;18.40;;;;;;;6.07;100.00;101373.90;1655471;86;21158;-90
2021/04/14 04:10:44;;;;;;;50.12;18.27;;;;;;;5.99;100.00;101372.78;1655587;86;21192;-90
2021/04/14 04:13:12;;;;;;;44.98;18.40;;;;;;;6.20;100.00;101374.36;1655530;86;21234;-91
2021/04/14 04:15:38;;;;;;;51.13;18.82;;;;;;;6.11;100.00;101379.13;1653060;86;21173;-91
2021/04/14 04:18:07;;;;;;;50.20;20.62;;;;;;;6.07;100.00;101380.59;1655426;86;21077;-90
2021/04/14 04:20:34;;;;;;;51.75;19.48;;;;;;;6.04;100.00;101382.87;1655440;86;21193;-90
2021/04/14 04:23:01;;;;;;;55.85;20.57;;;;;;;6.08;100.00;101378.73;1655555;86;21186;-90
2021/04/14 04:25:29;;;;;;;60.17;21.80;;;;;;;6.31;100.00;101376.38;1655703;86;21157;-90
2021/04/14 04:27:55;;;;;;;59.48;21.30;;;;;;;6.30;100.00;101377.43;1655413;84;21208;-91
2021/04/14 04:30:23;;;;;;;66.25;22.32;;;;;;;6.34;100.00;101373.28;1651309;86;21677;-89
2021/04/14 04:32:49;;;;;;;63.30;23.12;;;;;;;6.36;100.00;101381.93;1655299;86;21180;-90
2021/04/14 04:35:17;;;;;;;54.83;21.52;;;;;;;6.45;100.00;101374.48;1655816;86;21737;-91
2021/04/14 04:37:43;;;;;;;66.12;21.60;;;;;;;6.62;100.00;101365.45;1655541;86;21208;-90
2021/04/14 04:40:09;;;;;;;61.45;21.07;;;;;;;6.86;100.00;101364.38;1655456;86;21246;-90
2021/04/14 04:42:36;;;;;;;62.00;21.27;;;;;;;7.02;100.00;101363.84;1655432;86;21173;-91
2021/04/14 04:45:06;;;;;;;51.90;19.92;;;;;;;7.09;100.00;101365.13;1655579;86;21161;-90
2021/04/14 04:47:32;;;;;;;55.25;22.73;;;;;;;7.23;100.00;101358.10;1655474;86;21169;-90
2021/04/14 04:49:58;;;;;;;61.25;21.80;;;;;;;7.27;100.00;101357.17;1655490;86;21153;-89
2021/04/14 04:52:24;;;;;;;54.93;22.27;;;;;;;7.28;100.00;101358.80;1655458;86;21975;-89
2021/04/14 04:54:50;;;;;;;63.08;21.90;;;;;;;7.54;100.00;101355.59;1655608;86;21614;-90
2021/04/14 04:57:16;;;;;;;55.65;20.55;;;;;;;7.78;100.00;101359.28;1655921;86;21218;-90
2021/04/14 04:59:42;;;;;;;48.87;19.75;;;;;;;7.58;100.00;101355.44;1657136;86;21138;-90
2021/04/14 05:02:08;;;;;;;51.30;19.92;;;;;;;7.54;100.00;101348.36;1650689;86;21085;-90
2021/04/14 05:04:35;;;;;;;48.25;19.45;;;;;;;7.54;100.00;101347.55;1655595;86;21224;-90
2021/04/14 05:07:00;;;;;;;44.88;18.67;;;;;;;7.72;100.00;101347.05;1655316;86;21669;-89
2021/04/14 05:09:26;;;;;;;47.25;17.48;;;;;;;7.69;100.00;101344.80;1655595;86;20994;-89
2021/04/14 05:11:53;;;;;;;44.40;15.80;;;;;;;7.76;100.00;101339.89;1655355;86;21149;-89
2021/04/14 05:14:20;;;;;;;46.10;16.65;;;;;;;7.78;100.00;101336.47;1655533;86;22127;-90
2021/04/14 05:16:45;;;;;;;41.55;17.57;;;;;;;7.95;100.00;101333.50;1655452;86;21118;-89
2021/04/14 05:19:12;;;;;;;41.45;16.20;;;;;;;8.24;100.00;101328.41;1655425;86;21046;-89
2021/04/14 05:21:40;;;;;;;41.00;16.42;;;;;;;8.57;100.00;101326.66;1655456;86;21176;-89
2021/04/14 05:24:09;;;;;;;42.35;15.65;;;;;;;9.16;100.00;101316.03;1655280;86;21183;-89
2021/04/14 05:26:35;;;;;;;32.00;14.40;;;;;;;9.26;100.00;101313.04;1601899;89;21257;-87
2021/04/14 05:29:02;;;;;;;39.55;14.83;;;;;;;9.54;100.00;101307.50;1585047;90;22012;-88
2021/04/14 05:31:30;;;;;;;43.28;15.78;;;;;;;9.92;100.00;101311.55;1585010;90;21700;-88
2021/04/14 05:34:00;;;;;;;37.60;15.63;;;;;;;9.55;100.00;101314.51;1585059;90;21103;-88
2021/04/14 05:36:27;;;;;;;43.80;16.52;;;;;;;9.44;100.00;101320.70;1585058;90;21288;-87
2021/04/14 05:38:53;;;;;;;44.83;15.50;;;;;;;9.71;100.00;101312.99;1581600;89;21259;-88
2021/04/14 05:41:21;;;;;;;34.70;15.38;;;;;;;9.83;100.00;101308.41;1585149;90;21211;-88
2021/04/14 05:43:48;;;;;;;33.45;14.53;;;;;;;10.24;100.00;101310.05;1584832;89;21238;-88
2021/04/14 05:46:17;;;;;;;38.23;14.75;;;;;;;10.29;100.00;101308.53;1558958;92;21182;-88
2021/04/14 05:48:46;;;;;;;33.85;14.18;;;;;;;10.48;100.00;101305.94;1559310;91;21231;-88
2021/04/14 05:51:18;;;;;;;40.33;13.65;;;;;;;10.85;100.00;101304.98;1559073;92;21259;-88
2021/04/14 05:53:47;;;;;;;35.45;14.00;;;;;;;10.99;100.00;101304.11;1559233;92;21277;-87
2021/04/14 05:56:14;;;;;;;42.10;15.28;;;;;;;11.33;100.00;101313.56;1559067;92;21709;-88
2021/04/14 05:58:40;;;;;;;32.73;13.55;;;;;;;11.39;100.00;101311.76;1539321;92;21279;-87
2021/04/14 06:01:07;;;;;;;34.00;13.50;;;;;;;11.35;100.00;101316.30;1559054;91;21233;-87
2021/04/14 06:03:33;;;;;;;38.33;13.90;;;;;;;11.78;100.00;101313.91;1539315;92;21140;-87
2021/04/14 06:06:00;;;;;;;39.38;13.78;;;;;;;11.35;100.00;101309.55;1559035;91;22020;-87
2021/04/14 06:08:28;;;;;;;36.98;13.90;;;;;;;11.63;100.00;101309.13;1559015;92;21218;-88
2021/04/14 06:10:56;;;;;;;37.28;13.88;;;;;;;11.75;100.00;101315.77;1559214;92;21174;-89
2021/04/14 06:13:22;;;;;;;32.42;13.18;;;;;;;11.79;100.00;101312.84;1559207;92;21071;-88
2021/04/14 06:15:48;;;;;;;44.23;14.63;;;;;;;12.23;100.00;101311.52;1559331;92;20984;-89
2021/04/14 06:18:14;;;;;;;40.20;15.10;;;;;;;11.67;100.00;101310.80;1582068;90;21123;-87
2021/04/14 06:20:41;;;;;;;42.30;14.78;;;;;;;12.21;100.00;101313.14;1584849;89;21126;-87
2021/04/14 06:23:12;;;;;;;35.88;14.10;;;;;;;12.31;100.00;101310.27;1585013;90;21191;-91
2021/04/14 06:25:45;;;;;;;35.85;14.20;;;;;;;12.57;100.00;101300.00;1585083;90;21226;-89
2021/04/14 06:28:09;;;;;;;31.52;13.00;;;;;;;13.04;100.00;101301.22;1573843;88;21672;-92
2021/04/14 06:30:38;;;;;;;39.83;13.68;;;;;;;13.79;100.00;101296.02;1612551;88;21218;-87
2021/04/14 06:33:07;;;;;;;39.53;13.83;;;;;;;14.23;100.00;101268.53;1622703;88;21108;-87
2021/04/14 06:35:33;;;;;;;31.23;12.33;;;;;;;14.23;100.00;101268.53;1620642;88;21176;-87
2021/04/14 06:38:01;;;;;;;29.85;11.45;;;;;;;14.80;100.00;101284.94;1623044;88;21589;-88
2021/04/14 06:43:14;;;;;;;31.35;11.10;;;;;;;14.87;100.00;101274.61;1623182;88;21173;-87
2021/04/14 06:45:45;;;;;;;28.10;10.58;;;;;;;14.56;100.00;101270.54;1621320;88;21108;-87
2021/04/14 06:48:32;;;;;;;31.45;10.03;;;;;;;14.63;100.00;101272.98;1555442;90;21199;-88
2021/04/14 06:51:27;;;;;;;31.05;10.58;;;;;;;14.66;100.00;101269.73;1555709;92;21199;-86
2021/04/14 06:54:34;;;;;;;25.82;10.15;;;;;;;14.70;100.00;101262.11;1555635;90;21231;-86
2021/04/14 06:57:05;;;;;;;29.07;11.48;;;;;;;13.81;100.00;101265.42;1555688;90;21183;-86
2021/04/14 06:59:34;;;;;;;31.42;11.83;;;;;;;13.43;100.00;101272.55;1555962;89;21248;-87
2021/04/14 07:02:14;;;;;;;45.85;13.20;;;;;;;13.30;100.00;101252.17;1608771;87;21242;-87
2021/04/14 07:04:48;;;;;;;49.90;14.73;;;;;;;13.41;100.00;101271.44;1609812;87;21259;-87
2021/04/14 07:07:24;;;;;;;45.98;13.53;;;;;;;12.95;100.00;101263.81;1609772;87;21199;-87
2021/04/14 07:09:54;;;;;;;60.73;15.68;;;;;;;12.83;100.00;101274.55;1581213;89;22022;-87
2021/04/14 07:12:23;;;;;;;68.60;19.37;;;;;;;12.83;100.00;101274.55;1580636;90;21224;-87
2021/04/14 07:14:56;;;;;;;64.58;17.98;;;;;;;13.18;100.00;101263.98;1581122;90;21262;-88
2021/04/14 07:23:59;;;;;;;37.90;11.83;;;;;;;13.39;100.00;101252.77;1479636;96;21261;-88
2021/04/14 07:26:46;;;;;;;22.20;8.55;;;;;;;13.66;100.00;101255.88;1491727;96;21754;-86
2021/04/14 07:29:32;;;;;;;30.85;7.12;;;;;;;13.39;100.00;101254.66;1486812;96;21241;-88
2021/04/14 07:32:19;;;;;;;19.17;8.38;;;;;;;13.27;100.00;101256.22;1488037;96;21306;-88
2021/04/14 07:35:05;;;;;;;22.17;8.35;;;;;;;13.05;100.00;101250.08;1488038;96;21299;-88
2021/04/14 07:37:45;;;;;;;15.75;7.33;;;;;;;13.36;100.00;101247.07;1472336;96;21467;-88
2021/04/14 07:40:22;;;;;;;16.77;7.05;;;;;;;13.18;100.00;101253.16;1472558;97;21629;-88
2021/04/14 07:43:00;;;;;;;26.27;6.55;;;;;;;13.41;100.00;101245.72;1475280;96;21237;-89
2021/04/14 07:45:34;;;;;;;15.35;5.30;;;;;;;13.56;100.00;101247.69;1477816;94;21271;-87
2021/04/14 07:48:07;;;;;;;12.33;3.90;;;;;;;12.90;100.00;101245.38;1469170;96;21768;-88
2021/04/14 07:50:42;;;;;;;11.75;4.30;;;;;;;12.93;100.00;101246.20;1492374;94;21365;-88
2021/04/14 07:53:31;;;;;;;13.83;5.65;;;;;;;12.97;100.00;101247.34;1473628;97;21367;-88
2021/04/14 07:56:20;;;;;;;10.90;5.17;;;;;;;13.38;100.00;101243.54;1474097;97;21249;-89
2021/04/14 07:58:50;;;;;;;12.73;5.47;;;;;;;13.31;100.00;101241.08;1472999;97;21204;-91
2021/04/14 08:01:26;;;;;;;13.62;5.10;;;;;;;13.11;100.00;101244.97;1468154;97;21240;-91
2021/04/14 08:03:55;;;;;;;12.58;4.83;;;;;;;13.11;100.00;101245.78;1468392;96;21729;-89
2021/04/14 08:06:28;;;;;;;11.00;5.15;;;;;;;12.91;100.00;101245.12;1462193;97;21274;-90
2021/04/14 08:08:55;;;;;;;;;;;;;;;12.81;100.00;101249.63;1450921;99;21217;-91
2021/04/14 08:11:31;;;;;;;11.90;4.67;;;;;;;12.69;100.00;101249.80;1448974;99;20294;-90
2021/04/14 08:14:19;;;;;;;12.33;4.95;;;;;;;12.66;100.00;101245.72;1446942;97;21208;-90
2021/04/14 08:16:50;;;;;;;16.17;5.70;;;;;;;12.52;100.00;101239.65;1504474;94;21251;-90
2021/04/14 08:19:24;;;;;;;13.80;5.75;;;;;;;12.61;100.00;101240.80;1485108;96;21278;-91
2021/04/14 08:22:14;;;;;;;20.00;6.35;;;;;;;12.35;100.00;101249.21;1514686;90;21215;-90
2021/04/14 08:24:53;;;;;;;14.25;5.37;;;;;;;12.47;100.00;101252.56;1577140;90;21186;-90
2021/04/14 08:27:27;;;;;;;13.65;5.83;;;;;;;12.09;100.00;101248.97;1579563;89;21458;-89
2021/04/14 08:30:07;;;;;;;22.67;6.87;;;;;;;11.64;100.00;101250.01;1578343;90;21367;-92
2021/04/14 08:32:50;;;;;;;17.42;7.40;;;;;;;11.53;100.00;101242.84;1581709;90;21747;-90
2021/04/14 08:35:39;;;;;;;19.17;7.40;;;;;;;11.59;100.00;101252.66;1552198;92;21195;-90
2021/04/14 08:38:13;;;;;;;20.08;8.33;;;;;;;11.82;100.00;101253.77;1560946;91;21219;-90
2021/04/14 08:40:49;;;;;;;20.10;8.63;;;;;;;11.86;100.00;101247.35;1541652;91;21247;-90
2021/04/14 08:43:39;;;;;;;21.90;8.95;;;;;;;11.83;100.00;101249.17;1561106;91;21648;-90
2021/04/14 08:46:12;;;;;;;20.23;9.05;;;;;;;11.37;100.00;101225.64;1560661;91;21179;-90
2021/04/14 08:48:46;;;;;;;27.32;10.38;;;;;;;11.76;100.00;101245.30;1551261;92;21831;-91
2021/04/14 08:51:14;;;;;;;25.02;9.48;;;;;;;11.14;100.00;101231.52;1602428;89;21668;-91
2021/04/14 08:53:43;;;;;;;20.65;8.50;;;;;;;11.44;100.00;101240.30;1562062;90;21635;-92
2021/04/14 08:56:11;;;;;;;19.30;8.48;;;;;;;11.40;100.00;101235.12;1582405;90;21188;-93
2021/04/14 08:58:38;;;;;;;17.95;6.80;;;;;;;11.80;100.00;101234.29;1582337;90;22508;-92
2021/04/14 09:01:05;;;;;;;17.98;7.45;;;;;;;11.81;100.00;101233.21;1582282;90;21278;-92
2021/04/14 09:03:39;;;;;;;18.40;8.10;;;;;;;11.72;100.00;101225.81;1562013;90;21254;-94
2021/04/14 09:06:08;;;;;;;20.85;7.72;;;;;;;11.82;100.00;101229.47;1580073;90;21499;-94
2021/04/14 09:08:37;;;;;;;18.32;8.25;;;;;;;11.13;100.00;101227.73;1583074;90;21621;-94
2021/04/14 09:11:07;;;;;;;18.23;7.25;;;;;;;11.57;100.00;101227.25;1583114;90;21182;-94
2021/04/14 09:13:46;;;;;;;18.67;7.12;;;;;;;11.49;100.00;101226.87;1574656;90;21388;-95
2021/04/14 09:16:34;;;;;;;19.12;7.78;;;;;;;11.65;100.00;101222.47;1574815;91;21196;-94
2021/04/14 09:19:34;;;;;;;33.20;9.83;;;;;;;11.80;100.00;101222.68;1573825;91;21811;-95
2021/04/14 09:22:28;;;;;;;24.67;8.15;;;;;;;11.30;100.00;101215.57;1573800;91;21271;-94
2021/04/14 09:24:58;;;;;;;33.55;8.83;;;;;;;11.75;100.00;101219.37;1573127;91;21202;-94
2021/04/14 09:27:44;;;;;;;27.20;9.58;;;;;;;11.75;100.00;101224.77;1569525;89;21218;-93
2021/04/14 09:30:33;;;;;;;34.65;9.40;;;;;;;11.79;100.00;101217.81;1572787;91;21138;-93
2021/04/14 09:33:10;;;;;;;33.92;9.48;;;;;;;11.65;100.00;101217.91;1573616;90;21116;-92
2021/04/14 09:35:42;;;;;;;29.50;8.53;;;;;;;11.31;100.00;101215.84;1575391;89;21233;-93
2021/04/14 09:40:43;;;;;;;17.67;6.50;;;;;;;10.86;100.00;101206.03;1555831;92;21274;-93
2021/04/14 09:43:30;;;;;;;15.98;6.53;;;;;;;11.05;100.00;101203.88;1555319;92;21017;-92
2021/04/14 09:46:03;;;;;;;14.28;6.33;;;;;;;11.44;100.00;101205.20;1541923;92;21288;-91
2021/04/14 09:48:45;;;;;;;15.28;5.75;;;;;;;11.63;100.00;101200.33;1534866;93;22033;-91
2021/04/14 09:59:05;;;;;;;14.23;5.78;;;;;;;11.26;100.00;101195.53;1534369;93;21247;-91
2021/04/14 10:01:41;;;;;;;14.87;6.25;;;;;;;11.55;100.00;101201.58;1490915;95;21408;-86
2021/04/14 10:04:43;;;;;;;12.37;5.53;;;;;;;12.08;100.00;101201.39;1486040;94;21167;-93
2021/04/14 10:07:48;;;;;;;13.60;5.62;;;;;;;11.79;100.00;101201.61;1492969;95;21230;-93
2021/04/14 10:10:31;;;;;;;12.13;5.35;;;;;;;12.09;100.00;101188.69;1493685;95;21229;-94
2021/04/14 10:13:10;;;;;;;12.75;5.65;;;;;;;11.90;100.00;101184.19;1469992;97;21199;-93
2021/04/14 10:15:57;;;;;;;14.07;5.10;;;;;;;11.92;100.00;101182.06;1407085;100;21748;-93
2021/04/14 10:19:11;;;;;;;13.78;5.90;;;;;;;12.02;100.00;101187.55;1383674;102;21263;-94
2021/04/14 10:21:48;;;;;;;14.85;5.55;;;;;;;12.12;100.00;101183.62;1420957;99;21691;-94
2021/04/14 10:24:26;;;;;;;16.90;5.40;;;;;;;12.48;100.00;101183.39;1420621;101;21253;-95
2021/04/14 10:27:03;;;;;;;13.90;5.85;;;;;;;12.17;100.00;101180.94;1418549;101;21307;-93
2021/04/14 10:29:43;;;;;;;11.03;5.85;;;;;;;12.28;100.00;101181.32;1444963;99;21788;-93
2021/04/14 10:32:23;;;;;;;10.23;5.72;;;;;;;12.46;100.00;101176.61;1430525;100;21277;-95
2021/04/14 10:35:14;;;;;;;12.88;6.08;;;;;;;12.61;100.00;101175.91;1408789;101;21236;-94
2021/04/14 10:37:57;;;;;;;12.28;5.97;;;;;;;12.59;100.00;101175.34;1371301;102;21308;-93
2021/04/14 10:40:49;;;;;;;12.13;6.20;;;;;;;13.42;100.00;101166.15;1392999;102;21461;-95
2021/04/14 10:43:30;;;;;;;16.30;6.37;;;;;;;13.91;100.00;101160.31;1348875;106;21306;-94
2021/04/14 10:53:24;;;;;;;14.10;6.35;;;;;;;13.44;100.00;101168.03;1334697;107;21335;-91
2021/04/14 10:55:52;;;;;;;;;;;;;;;13.78;100.00;101167.62;1360883;104;21304;-92
2021/04/14 10:58:28;;;;;;;12.58;6.58;;;;;;;14.48;100.00;101151.70;1375161;102;20310;-92
2021/04/14 11:01:13;;;;;;;14.10;6.75;;;;;;;14.48;100.00;101151.70;1376173;104;21716;-92
2021/04/14 11:04:20;;;;;;;12.63;6.60;;;;;;;14.84;100.00;101166.06;1358733;105;21717;-91
2021/04/14 11:07:01;;;;;;;12.70;6.67;;;;;;;14.09;100.00;101167.15;1340240;105;21725;-93
2021/04/14 11:09:42;;;;;;;15.15;7.47;;;;;;;14.09;100.00;101167.15;1311736;108;21796;-93
2021/04/14 11:12:22;;;;;;;18.57;7.08;;;;;;;14.36;100.00;101156.05;1303080;108;21644;-91
2021/04/14 11:15:00;;;;;;;16.90;6.65;;;;;;;14.36;100.00;101156.05;1267909;113;21892;-93
2021/04/14 11:17:40;;;;;;;11.20;5.85;;;;;;;14.89;100.00;101156.56;1269247;113;21209;-92
2021/04/14 11:20:23;;;;;;;20.80;12.25;;;;;;;15.38;100.00;101156.39;1296870;109;21309;-93
2021/04/14 11:23:02;;;;;;;12.63;6.20;;;;;;;15.68;100.00;101155.48;1280892;107;21916;-92
2021/04/14 11:25:46;;;;;;;12.35;6.83;;;;;;;15.73;100.00;101159.52;1296652;109;21746;-92
2021/04/14 11:28:22;;;;;;;11.53;6.25;;;;;;;15.94;100.00;101155.31;1296560;109;21316;-93
2021/04/14 11:31:03;;;;;;;11.65;6.00;;;;;;;15.98;100.00;101154.48;1236892;116;21493;-93
2021/04/14 11:33:49;;;;;;;14.78;6.20;;;;;;;16.05;100.00;101154.16;1286283;111;21744;-92
2021/04/14 11:40:53;;;;;;;;;;;;;;;;;;;;;
2021/04/14 11:47:10;;;;;;;12.33;6.10;;;;;;;15.34;100.00;101141.21;1255616;113;21748;-94
2021/04/14 11:49:51;;;;;;;10.20;5.47;;;;;;;15.73;100.00;101139.13;1260681;111;21378;-93
2021/04/14 11:56:32;;;;;;;;;;;;;;;;;;;;;
2021/04/14 11:59:11;;;;;;;15.63;6.55;;;;;;;16.79;100.00;101134.50;1347903;105;21259;-96
2021/04/14 12:12:18;;;;;;;10.30;5.33;;;;;;;16.75;95.65;101122.55;1288548;110;21171;-94
2021/04/14 12:14:59;;;;;;;13.80;6.55;;;;;;;16.73;93.05;101112.48;1290663;111;21782;-93
2021/04/14 12:17:35;;;;;;;13.58;6.55;;;;;;;16.18;98.23;101107.30;1295385;108;21319;-92
2021/04/14 12:20:16;;;;;;;;;;;;;;;;;;;;;
2021/04/14 12:22:45;;;;;;;14.85;6.00;;;;;;;16.53;100.00;101105.34;1265285;111;21397;-93